Bw Aries — 2HSO5 — position and weather

sailwx.info

Track history (hours):
 
Tides and Currents Weather Stations Pressure Air Temp Water Temp Dewpoint Dewpoint Depression Visibility Wind Speed Wind Dir Waves Ship Positions

Bw Aries

Last reported at 2018-Mar-29 19:54 UTC. Time now 2018-Apr-20 01:23 UTC.
Position N 09°11' W 079°52'.
Warning: this ship's position is 21 days out of date.

Length 225 m; draft 11.7 m.

Type: Tanker. MMSI: 235106302.

Date/timePositionNaut miles runAvg speedWind from/ knotsBaromVisibWave heightAir tempDewpointWater temp
2018-Mar-29 19:54N 09°11' W 079°52'511.0
2018-Mar-29 19:29N 09°14' W 079°55'2 4.1
2018-Mar-29 18:56N 09°16' W 079°55'0 0.3
2018-Mar-29 18:23N 09°16' W 079°55'0 0.7
2018-Mar-29 18:00N 09°16' W 079°55'0 0.1
2018-Mar-29 17:30N 09°16' W 079°55'0 0.5
2018-Mar-29 17:00N 09°17' W 079°55'0 0.0
2018-Mar-29 16:30N 09°17' W 079°55'1 0.7
2018-Mar-29 15:49N 09°17' W 079°55'1 1.3
2018-Mar-29 15:25N 09°18' W 079°55'2 3.7
2018-Mar-29 15:00N 09°19' W 079°55'2 3.0
2018-Mar-29 14:29N 09°21' W 079°55'3 5.4
2018-Mar-29 14:00N 09°23' W 079°55'3 6.6
2018-Mar-29 13:30N 09°27' W 079°55'3 5.2
2018-Mar-29 13:00N 09°29' W 079°54'3 5.8
2018-Mar-29 12:29N 09°32' W 079°53'3 4.8
2018-Mar-29 11:55N 09°34' W 079°53'2 4.5
2018-Mar-29 11:24N 09°37' W 079°52'  
2018-Mar-26 00:24N 24°40' W 089°53'24415.4
2018-Mar-25 08:30N 25°55' W 094°10'1910.3
2018-Mar-25 06:39N 26°08' W 094°25'7214.9
2018-Mar-25 01:49N 27°21' W 094°26'6515.3
2018-Mar-24 21:33N 28°26' W 094°25'514.8
2018-Mar-24 21:13N 28°31' W 094°25'614.8
2018-Mar-24 20:47N 28°37' W 094°25'415.0
2018-Mar-24 20:30N 28°41' W 094°25'815.0
2018-Mar-24 19:58N 28°49' W 094°25'714.6
2018-Mar-24 19:29N 28°56' W 094°25'714.1
2018-Mar-24 18:59N 29°03' W 094°25'612.8
2018-Mar-24 18:30N 29°09' W 094°27'713.8
2018-Mar-24 18:00N 29°14' W 094°33'612.1
2018-Mar-24 17:29N 29°19' W 094°38'610.9
2018-Mar-24 16:55N 29°21' W 094°45'4 9.5
2018-Mar-24 16:30N 29°23' W 094°48'5 9.9
2018-Mar-24 16:00N 29°27' W 094°51'510.4
2018-Mar-24 15:30N 29°32' W 094°54'510.4
2018-Mar-24 15:00N 29°36' W 094°57'5 9.7
2018-Mar-24 14:30N 29°41' W 094°59'4 7.5
2018-Mar-24 13:59N 29°44' W 095°02'3 6.3
2018-Mar-24 13:30N 29°46' W 095°04'3 5.1
2018-Mar-24 13:00N 29°44' W 095°07'  
2018-Mar-21 11:13N 29°44' W 095°07'0 0.4
2018-Mar-21 11:00N 29°44' W 095°07'2 3.4
2018-Mar-21 10:31N 29°45' W 095°06'3 5.1
2018-Mar-21 09:58N 29°44' W 095°03'3 6.0
2018-Mar-21 09:30N 29°42' W 095°01'4 8.4
2018-Mar-21 09:01N 29°39' W 094°58'611.1
2018-Mar-21 08:30N 29°34' W 094°55'611.5
2018-Mar-21 08:00N 29°29' W 094°51'510.2
2018-Mar-21 07:30N 29°24' W 094°49'5 9.7
2018-Mar-21 06:59N 29°21' W 094°45'5 9.5
2018-Mar-21 06:29N 29°20' W 094°40'4 8.5
2018-Mar-21 06:00N 29°19' W 094°35'1 1.8
2018-Mar-21 05:28N 29°19' W 094°34'0 0.1
2018-Mar-21 04:55N 29°19' W 094°34'0 0.0
2018-Mar-21 04:28N 29°19' W 094°34'0 0.0
2018-Mar-21 03:58N 29°19' W 094°34'0 0.0
2018-Mar-21 03:28N 29°19' W 094°34'0 0.0
2018-Mar-21 02:58N 29°19' W 094°34'0 0.0
2018-Mar-21 02:16N 29°19' W 094°34'0 0.0
2018-Mar-21 01:58N 29°19' W 094°34'0 0.0
2018-Mar-21 01:25N 29°19' W 094°34'1 1.2
2018-Mar-21 00:59N 29°19' W 094°34'4 8.8
2018-Mar-21 00:30N 29°15' W 094°31'814.4
2018-Mar-20 23:58N 29°10' W 094°24'714.6
2018-Mar-20 23:27N 29°03' W 094°25'715.0
2018-Mar-20 22:59N 28°56' W 094°25'815.2
2018-Mar-20 22:28N 28°48' W 094°25'715.5
2018-Mar-20 21:59N 28°41' W 094°25'815.5
2018-Mar-20 21:27N 28°32' W 094°24'  
Track history (hours):
 
Tides and Currents Weather Stations Pressure Air Temp Water Temp Dewpoint Dewpoint Depression Visibility Wind Speed Wind Dir Waves Ship Positions

Bw Aries

Last reported at 2018-Mar-29 19:54 UTC. Time now 2018-Apr-20 01:23 UTC.
Position N 09°11' W 079°52'.
Warning: this ship's position is 21 days out of date.

Length 225 m; draft 11.7 m.

Type: Tanker. MMSI: 235106302.

Date/timePositionNaut miles runAvg speedWind from/ knotsBaromVisibWave heightAir tempDewpointWater temp
2018-Mar-29 19:54N 09°11' W 079°52'511.0
2018-Mar-29 19:29N 09°14' W 079°55'2 4.1
2018-Mar-29 18:56N 09°16' W 079°55'0 0.3
2018-Mar-29 18:23N 09°16' W 079°55'0 0.7
2018-Mar-29 18:00N 09°16' W 079°55'0 0.1
2018-Mar-29 17:30N 09°16' W 079°55'0 0.5
2018-Mar-29 17:00N 09°17' W 079°55'0 0.0
2018-Mar-29 16:30N 09°17' W 079°55'1 0.7
2018-Mar-29 15:49N 09°17' W 079°55'1 1.3
2018-Mar-29 15:25N 09°18' W 079°55'2 3.7
2018-Mar-29 15:00N 09°19' W 079°55'2 3.0
2018-Mar-29 14:29N 09°21' W 079°55'3 5.4
2018-Mar-29 14:00N 09°23' W 079°55'3 6.6
2018-Mar-29 13:30N 09°27' W 079°55'3 5.2
2018-Mar-29 13:00N 09°29' W 079°54'3 5.8
2018-Mar-29 12:29N 09°32' W 079°53'3 4.8
2018-Mar-29 11:55N 09°34' W 079°53'2 4.5
2018-Mar-29 11:24N 09°37' W 079°52'  
2018-Mar-26 00:24N 24°40' W 089°53'24415.4
2018-Mar-25 08:30N 25°55' W 094°10'1910.3
2018-Mar-25 06:39N 26°08' W 094°25'7214.9
2018-Mar-25 01:49N 27°21' W 094°26'6515.3
2018-Mar-24 21:33N 28°26' W 094°25'514.8
2018-Mar-24 21:13N 28°31' W 094°25'614.8
2018-Mar-24 20:47N 28°37' W 094°25'415.0
2018-Mar-24 20:30N 28°41' W 094°25'815.0
2018-Mar-24 19:58N 28°49' W 094°25'714.6
2018-Mar-24 19:29N 28°56' W 094°25'714.1
2018-Mar-24 18:59N 29°03' W 094°25'612.8
2018-Mar-24 18:30N 29°09' W 094°27'713.8
2018-Mar-24 18:00N 29°14' W 094°33'612.1
2018-Mar-24 17:29N 29°19' W 094°38'610.9
2018-Mar-24 16:55N 29°21' W 094°45'4 9.5
2018-Mar-24 16:30N 29°23' W 094°48'5 9.9
2018-Mar-24 16:00N 29°27' W 094°51'510.4
2018-Mar-24 15:30N 29°32' W 094°54'510.4
2018-Mar-24 15:00N 29°36' W 094°57'5 9.7
2018-Mar-24 14:30N 29°41' W 094°59'4 7.5
2018-Mar-24 13:59N 29°44' W 095°02'3 6.3
2018-Mar-24 13:30N 29°46' W 095°04'3 5.1
2018-Mar-24 13:00N 29°44' W 095°07'  
2018-Mar-21 11:13N 29°44' W 095°07'0 0.4
2018-Mar-21 11:00N 29°44' W 095°07'2 3.4
2018-Mar-21 10:31N 29°45' W 095°06'3 5.1
2018-Mar-21 09:58N 29°44' W 095°03'3 6.0
2018-Mar-21 09:30N 29°42' W 095°01'4 8.4
2018-Mar-21 09:01N 29°39' W 094°58'611.1
2018-Mar-21 08:30N 29°34' W 094°55'611.5
2018-Mar-21 08:00N 29°29' W 094°51'510.2
2018-Mar-21 07:30N 29°24' W 094°49'5 9.7
2018-Mar-21 06:59N 29°21' W 094°45'5 9.5
2018-Mar-21 06:29N 29°20' W 094°40'4 8.5
2018-Mar-21 06:00N 29°19' W 094°35'1 1.8
2018-Mar-21 05:28N 29°19' W 094°34'0 0.1
2018-Mar-21 04:55N 29°19' W 094°34'0 0.0
2018-Mar-21 04:28N 29°19' W 094°34'0 0.0
2018-Mar-21 03:58N 29°19' W 094°34'0 0.0
2018-Mar-21 03:28N 29°19' W 094°34'0 0.0
2018-Mar-21 02:58N 29°19' W 094°34'0 0.0
2018-Mar-21 02:16N 29°19' W 094°34'0 0.0
2018-Mar-21 01:58N 29°19' W 094°34'0 0.0
2018-Mar-21 01:25N 29°19' W 094°34'1 1.2
2018-Mar-21 00:59N 29°19' W 094°34'4 8.8
2018-Mar-21 00:30N 29°15' W 094°31'814.4
2018-Mar-20 23:58N 29°10' W 094°24'714.6
2018-Mar-20 23:27N 29°03' W 094°25'715.0
2018-Mar-20 22:59N 28°56' W 094°25'815.2
2018-Mar-20 22:28N 28°48' W 094°25'715.5
2018-Mar-20 21:59N 28°41' W 094°25'815.5
2018-Mar-20 21:27N 28°32' W 094°24'  

Dump ship's entire track history